Time;durP1;ratioP1;P1;durP2;ratioP2;P2;SDS_P1;SDS_P2;PMS_P1;PMS_P2;Temp;Humidity;BMP_temperature;BMP_pressure;BME280_temperature;BME280_humidity;BME280_pressure;Samples;Min_cycle;Max_cycle;Signal;HPM_P1;HPM_P2
2023/09/05 00:04:06;;;;;;;3.53;2.83;;;;;;;;;;5075791;28;20177;-74
2023/09/05 00:10:44;;;;;;;4.03;2.33;;;;;;;;;;5075525;28;20186;-74
2023/09/05 00:17:22;;;;;;;4.67;2.90;;;;;;;;;;5075572;28;20170;-74
2023/09/05 00:20:07;;;;;;;4.13;2.70;;;;;;;;;;5060308;28;20186;-74
2023/09/05 00:30:34;;;;;;;4.97;3.30;;;;;;;;;;5075427;28;20224;-73
2023/09/05 00:33:01;;;;;;;4.47;3.70;;;;;;;;;;5074687;28;20341;-73
2023/09/05 00:39:28;;;;;;;3.90;3.07;;;;;;;;;;5075182;28;20280;-74
2023/09/05 00:41:56;;;;;;;3.93;2.77;;;;;;;;;;5075768;28;20189;-74
2023/09/05 00:48:16;;;;;;;6.20;2.73;;;;;;;;;;5075219;28;20148;-74
2023/09/05 00:50:45;;;;;;;4.63;3.10;;;;;;;;;;5057267;28;20186;-74
2023/09/05 00:53:12;;;;;;;3.90;2.70;;;;;;;;;;5040688;28;20190;-74
2023/09/05 00:55:39;;;;;;;3.87;3.03;;;;;;;;;;5057523;28;20214;-74
2023/09/05 00:58:23;;;;;;;7.23;3.47;;;;;;;;;;5056848;28;20162;-73
2023/09/05 01:04:50;;;;;;;5.10;2.77;;;;;;;;;;5074368;28;20169;-73
2023/09/05 01:07:29;;;;;;;5.13;2.60;;;;;;;;;;5040372;28;20540;-74
2023/09/05 01:46:10;;;;;;;4.70;3.00;;;;;;;;;;4781621;28;20718;-73
2023/09/05 01:52:37;;;;;;;3.90;2.60;;;;;;;;;;5073769;28;20145;-73
2023/09/05 01:55:21;;;;;;;4.47;2.97;;;;;;;;;;5059142;28;20186;-73
2023/09/05 01:57:47;;;;;;;4.77;3.20;;;;;;;;;;5056715;28;20236;-73
2023/09/05 02:00:17;;;;;;;4.07;2.50;;;;;;;;;;5055918;28;20541;-73
2023/09/05 02:06:44;;;;;;;4.03;3.33;;;;;;;;;;5073543;28;20521;-73
2023/09/05 02:13:10;;;;;;;3.43;2.50;;;;;;;;;;5073412;28;20188;-73
2023/09/05 02:15:37;;;;;;;6.03;3.03;;;;;;;;;;5073628;28;20197;-74
2023/09/05 02:18:06;;;;;;;4.13;2.60;;;;;;;;;;5056205;28;20214;-73
2023/09/05 02:20:33;;;;;;;3.23;2.50;;;;;;;;;;5056034;28;20201;-73
2023/09/05 02:27:01;;;;;;;3.83;2.60;;;;;;;;;;5073354;28;20244;-73
2023/09/05 02:29:28;;;;;;;7.73;2.70;;;;;;;;;;5074143;28;20544;-73
2023/09/05 02:32:13;;;;;;;5.73;2.70;;;;;;;;;;5058537;28;20158;-73
2023/09/05 02:38:39;;;;;;;4.17;2.30;;;;;;;;;;5073147;28;20228;-73
2023/09/05 02:41:06;;;;;;;3.60;2.50;;;;;;;;;;5039575;28;20683;-74
2023/09/05 02:43:33;;;;;;;4.68;3.00;;;;;;;;;;5054790;28;20414;-74
2023/09/05 02:45:59;;;;;;;4.97;2.73;;;;;;;;;;5055143;28;20255;-74
2023/09/05 02:48:26;;;;;;;4.27;2.47;;;;;;;;;;5055641;28;20231;-73
2023/09/05 02:51:06;;;;;;;5.13;2.10;;;;;;;;;;5073366;28;20186;-74
2023/09/05 02:53:33;;;;;;;3.20;2.23;;;;;;;;;;5055725;28;20583;-74
2023/09/05 02:59:53;;;;;;;3.37;2.23;;;;;;;;;;5077162;28;20189;-73
2023/09/05 03:02:40;;;;;;;2.40;1.90;;;;;;;;;;5077323;28;20637;-73
2023/09/05 03:05:07;;;;;;;2.93;2.20;;;;;;;;;;5059193;28;20200;-74
2023/09/05 03:07:33;;;;;;;3.97;2.20;;;;;;;;;;5059355;28;20194;-73
2023/09/05 03:10:00;;;;;;;3.13;2.27;;;;;;;;;;5059408;28;20182;-74
2023/09/05 03:16:23;;;;;;;3.23;2.20;;;;;;;;;;5076876;28;20568;-73
2023/09/05 03:18:50;;;;;;;3.90;3.17;;;;;;;;;;5043043;28;20628;-74
2023/09/05 03:21:18;;;;;;;3.30;2.53;;;;;;;;;;5059405;28;20525;-73
2023/09/05 03:23:45;;;;;;;3.17;2.30;;;;;;;;;;5058755;28;20194;-73
2023/09/05 03:30:11;;;;;;;3.13;2.63;;;;;;;;;;5076357;28;20204;-73
2023/09/05 03:32:38;;;;;;;3.97;2.80;;;;;;;;;;5059372;28;20620;-73
2023/09/05 03:35:22;;;;;;;5.83;4.03;;;;;;;;;;5058577;28;20205;-73
2023/09/05 03:37:49;;;;;;;5.60;2.93;;;;;;;;;;5042812;28;20221;-73
2023/09/05 03:40:16;;;;;;;8.53;4.93;;;;;;;;;;5059142;28;20178;-73
2023/09/05 03:46:44;;;;;;;9.77;5.10;;;;;;;;;;5076056;28;20217;-77
2023/09/05 03:53:12;;;;;;;7.83;3.43;;;;;;;;;;5076389;28;20158;-71
2023/09/05 03:55:40;;;;;;;5.07;3.40;;;;;;;;;;5042228;28;20232;-71
2023/09/05 03:58:27;;;;;;;4.63;3.57;;;;;;;;;;5061094;28;20174;-70
2023/09/05 04:01:01;;;;;;;4.53;3.20;;;;;;;;;;5042043;28;20283;-72
2023/09/05 04:03:32;;;;;;;6.63;3.70;;;;;;;;;;5026871;28;20524;-70
2023/09/05 04:10:00;;;;;;;5.47;2.90;;;;;;;;;;5076729;28;20173;-72
2023/09/05 04:12:29;;;;;;;5.07;2.57;;;;;;;;;;5058548;28;20299;-72
2023/09/05 04:19:13;;;;;;;3.73;2.70;;;;;;;;;;5076005;28;20157;-72
2023/09/05 04:21:40;;;;;;;5.60;2.67;;;;;;;;;;5058723;28;20174;-72
2023/09/05 04:24:08;;;;;;;4.83;2.60;;;;;;;;;;5058461;28;20243;-71
2023/09/05 04:30:29;;;;;;;3.87;2.63;;;;;;;;;;5075770;28;20635;-71
2023/09/05 04:32:57;;;;;;;4.80;2.50;;;;;;;;;;5041860;28;20248;-71
2023/09/05 04:35:26;;;;;;;3.70;2.50;;;;;;;;;;5025220;28;20237;-71
2023/09/05 04:37:53;;;;;;;5.33;2.57;;;;;;;;;;5041723;28;20194;-71
2023/09/05 04:40:20;;;;;;;7.57;2.77;;;;;;;;;;5057678;28;20186;-72
2023/09/05 04:42:48;;;;;;;4.57;2.73;;;;;;;;;;5057782;28;20193;-71
2023/09/05 04:45:15;;;;;;;5.47;2.83;;;;;;;;;;5041004;28;20228;-71
2023/09/05 04:47:42;;;;;;;4.20;2.87;;;;;;;;;;5058521;28;20181;-73
2023/09/05 04:50:09;;;;;;;5.77;3.50;;;;;;;;;;5041810;28;20186;-74
2023/09/05 04:52:38;;;;;;;4.57;2.90;;;;;;;;;;5057584;28;20178;-73
2023/09/05 04:55:06;;;;;;;7.97;2.90;;;;;;;;;;5024992;28;20632;-73
2023/09/05 04:57:35;;;;;;;5.80;3.80;;;;;;;;;;5041170;28;20548;-71
2023/09/05 05:00:04;;;;;;;4.33;3.37;;;;;;;;;;5057421;28;20239;-71
2023/09/05 05:06:28;;;;;;;6.67;3.80;;;;;;;;;;5075181;28;20203;-72
2023/09/05 05:08:56;;;;;;;6.57;3.73;;;;;;;;;;5041053;28;20182;-74
2023/09/05 05:15:17;;;;;;;6.27;3.83;;;;;;;;;;5075201;28;20233;-72
2023/09/05 05:17:44;;;;;;;6.33;3.40;;;;;;;;;;5024743;28;20186;-71
2023/09/05 05:20:18;;;;;;;4.03;3.10;;;;;;;;;;5041880;28;20225;-70
2023/09/05 05:22:46;;;;;;;8.97;2.80;;;;;;;;;;5074624;28;20189;-71
2023/09/05 05:25:18;;;;;;;8.73;2.80;;;;;;;;;;5075014;28;20510;-71
2023/09/05 05:27:48;;;;;;;7.70;2.60;;;;;;;;;;5041995;28;20562;-71
2023/09/05 05:30:35;;;;;;;3.93;2.50;;;;;;;;;;5042419;28;20259;-74
2023/09/05 05:37:03;;;;;;;3.27;2.20;;;;;;;;;;5074992;28;20264;-75
2023/09/05 05:39:30;;;;;;;4.87;2.27;;;;;;;;;;5056831;28;20189;-75
2023/09/05 05:41:57;;;;;;;3.63;2.50;;;;;;;;;;5040084;28;20182;-74
2023/09/05 05:44:24;;;;;;;4.10;2.60;;;;;;;;;;5074697;28;20194;-74
2023/09/05 05:46:56;;;;;;;5.83;2.73;;;;;;;;;;5039786;28;20325;-74
2023/09/05 05:49:42;;;;;;;5.70;2.23;;;;;;;;;;5036948;28;20204;-74
2023/09/05 05:52:10;;;;;;;5.60;2.27;;;;;;;;;;5056679;28;20193;-74
2023/09/05 05:58:48;;;;;;;3.57;2.10;;;;;;;;;;5074403;28;20161;-74
2023/09/05 06:01:18;;;;;;;4.17;1.90;;;;;;;;;;5073754;28;20685;-70
2023/09/05 06:03:45;;;;;;;5.53;1.80;;;;;;;;;;5056024;28;20182;-72
2023/09/05 06:06:12;;;;;;;5.00;1.87;;;;;;;;;;5039815;28;20219;-72
2023/09/05 06:12:33;;;;;;;8.50;2.00;;;;;;;;;;5065954;28;20192;-73
2023/09/05 06:15:00;;;;;;;7.37;2.03;;;;;;;;;;5039596;28;20209;-73
2023/09/05 06:21:27;;;;;;;6.33;2.90;;;;;;;;;;5074113;28;20150;-71
2023/09/05 06:23:54;;;;;;;6.90;2.40;;;;;;;;;;5075026;28;20193;-72
2023/09/05 06:26:21;;;;;;;6.83;2.20;;;;;;;;;;5057440;28;20290;-73
2023/09/05 06:32:49;;;;;;;4.83;2.03;;;;;;;;;;5072643;28;20700;-75
2023/09/05 06:39:18;;;;;;;2.33;1.80;;;;;;;;;;5078675;28;20228;-76
2023/09/05 06:41:46;;;;;;;4.57;1.73;;;;;;;;;;5043874;28;20695;-72
2023/09/05 06:48:06;;;;;;;2.60;2.00;;;;;;;;;;5077918;28;20671;-77
2023/09/05 06:50:33;;;;;;;4.50;1.70;;;;;;;;;;5060293;28;20194;-74
2023/09/05 06:53:00;;;;;;;2.50;1.87;;;;;;;;;;5043923;28;20174;-73
2023/09/05 06:55:28;;;;;;;3.60;1.70;;;;;;;;;;5044673;28;20625;-76
2023/09/05 06:57:56;;;;;;;4.93;1.63;;;;;;;;;;5043844;28;20217;-80
2023/09/05 07:04:26;;;;;;;3.53;1.90;;;;;;;;;;5078309;28;20221;-77
2023/09/05 07:10:52;;;;;;;3.00;2.00;;;;;;;;;;5077735;28;20199;-82
2023/09/05 07:13:19;;;;;;;3.37;1.87;;;;;;;;;;5043178;28;20205;-74
2023/09/05 07:19:39;;;;;;;3.40;1.67;;;;;;;;;;5077973;28;20240;-74
2023/09/05 07:22:07;;;;;;;3.17;1.63;;;;;;;;;;5078196;28;20194;-74
2023/09/05 07:28:34;;;;;;;2.60;1.70;;;;;;;;;;5077510;28;20149;-72
2023/09/05 07:31:02;;;;;;;5.53;2.07;;;;;;;;;;5059203;28;20207;-74
2023/09/05 07:33:31;;;;;;;3.00;1.70;;;;;;;;;;5059177;28;20182;-74
2023/09/05 07:36:00;;;;;;;3.30;1.60;;;;;;;;;;5043521;28;20190;-80
2023/09/05 07:38:28;;;;;;;3.47;1.70;;;;;;;;;;5077102;28;20239;-74
2023/09/05 07:44:52;;;;;;;3.17;1.70;;;;;;;;;;5077126;28;20235;-75
2023/09/05 07:47:23;;;;;;;4.30;2.07;;;;;;;;;;5052021;28;20269;-77
2023/09/05 07:54:10;;;;;;;5.33;2.00;;;;;;;;;;5056867;28;20151;-72
2023/09/05 08:00:37;;;;;;;5.20;1.77;;;;;;;;;;5058069;28;20250;-77
2023/09/05 08:07:05;;;;;;;3.70;2.10;;;;;;;;;;5059522;28;20632;-76
2023/09/05 08:13:33;;;;;;;3.93;1.93;;;;;;;;;;5056234;28;20237;-72
2023/09/05 08:16:02;;;;;;;4.53;2.03;;;;;;;;;;5038277;28;20538;-71
2023/09/05 08:18:30;;;;;;;4.50;2.10;;;;;;;;;;5023183;28;20506;-69
2023/09/05 08:20:59;;;;;;;2.40;1.60;;;;;;;;;;5031209;28;20188;-72
2023/09/05 08:23:28;;;;;;;3.20;1.57;;;;;;;;;;5075621;28;20196;-71
2023/09/05 08:26:12;;;;;;;2.13;1.70;;;;;;;;;;5057669;28;20622;-70
2023/09/05 08:28:43;;;;;;;5.07;1.90;;;;;;;;;;5057837;28;20178;-71
2023/09/05 08:35:10;;;;;;;3.77;2.00;;;;;;;;;;5075723;28;20177;-72
2023/09/05 08:37:38;;;;;;;2.53;1.90;;;;;;;;;;5076530;28;20279;-70
2023/09/05 08:40:08;;;;;;;2.87;1.73;;;;;;;;;;5074754;28;20171;-72
2023/09/05 08:46:34;;;;;;;3.83;2.20;;;;;;;;;;5075137;28;20651;-70
2023/09/05 08:53:01;;;;;;;5.03;1.77;;;;;;;;;;5075140;28;20188;-69
2023/09/05 08:55:29;;;;;;;3.10;2.00;;;;;;;;;;5056651;28;20193;-69
2023/09/05 09:01:51;;;;;;;2.40;2.00;;;;;;;;;;5075205;28;20149;-70
2023/09/05 09:04:48;;;;;;;4.10;2.17;;;;;;;;;;5075028;28;20154;-70
2023/09/05 09:07:17;;;;;;;4.67;1.90;;;;;;;;;;5057169;28;20287;-70
2023/09/05 09:09:46;;;;;;;4.77;2.20;;;;;;;;;;5056847;28;20251;-70
2023/09/05 09:12:13;;;;;;;4.97;2.20;;;;;;;;;;5056743;28;20236;-69
2023/09/05 09:15:10;;;;;;;2.50;1.93;;;;;;;;;;5074481;28;20165;-70
2023/09/05 09:17:45;;;;;;;2.80;2.10;;;;;;;;;;5057543;28;20273;-72
2023/09/05 09:20:14;;;;;;;2.67;1.63;;;;;;;;;;5075219;28;20200;-73
2023/09/05 09:22:44;;;;;;;3.17;2.30;;;;;;;;;;5057192;28;20186;-72
2023/09/05 09:25:14;;;;;;;5.57;2.23;;;;;;;;;;5056859;28;20219;-72
2023/09/05 09:27:44;;;;;;;3.40;1.83;;;;;;;;;;5071947;28;20214;-72
2023/09/05 09:30:30;;;;;;;2.90;1.97;;;;;;;;;;5060288;28;20165;-72
2023/09/05 09:32:57;;;;;;;4.97;1.93;;;;;;;;;;5041144;28;20623;-72
2023/09/05 09:35:41;;;;;;;2.43;2.10;;;;;;;;;;5042715;28;20177;-70
2023/09/05 09:38:08;;;;;;;4.87;1.90;;;;;;;;;;5056781;28;20278;-72
2023/09/05 09:40:36;;;;;;;4.33;1.90;;;;;;;;;;5056765;28;20194;-73
2023/09/05 09:43:03;;;;;;;2.93;2.03;;;;;;;;;;5057320;28;20193;-71
2023/09/05 09:45:32;;;;;;;3.03;2.10;;;;;;;;;;5064651;28;20193;-70
2023/09/05 09:47:58;;;;;;;5.10;2.23;;;;;;;;;;5074375;28;20671;-70
2023/09/05 09:50:25;;;;;;;6.43;2.13;;;;;;;;;;5040054;28;20281;-71
2023/09/05 09:52:53;;;;;;;5.03;2.27;;;;;;;;;;5073110;28;20536;-72
2023/09/05 09:55:20;;;;;;;5.03;2.13;;;;;;;;;;5074118;28;20184;-70
2023/09/05 10:01:49;;;;;;;4.33;2.10;;;;;;;;;;5074087;28;20152;-71
2023/09/05 10:04:16;;;;;;;3.90;2.23;;;;;;;;;;5039983;28;20178;-72
2023/09/05 10:06:45;;;;;;;2.83;2.00;;;;;;;;;;5056390;28;20182;-72
2023/09/05 10:09:13;;;;;;;2.37;1.77;;;;;;;;;;5072884;28;20250;-72
2023/09/05 10:11:40;;;;;;;3.80;2.13;;;;;;;;;;5056368;28;20254;-72
2023/09/05 10:14:24;;;;;;;3.87;1.90;;;;;;;;;;5058768;28;20162;-71
2023/09/05 10:16:51;;;;;;;3.77;2.10;;;;;;;;;;5056514;28;20205;-72
2023/09/05 10:19:35;;;;;;;3.40;2.30;;;;;;;;;;5058378;28;20163;-72
2023/09/05 10:22:02;;;;;;;4.03;1.90;;;;;;;;;;5039828;28;20182;-71
2023/09/05 10:24:49;;;;;;;2.47;1.87;;;;;;;;;;5074174;28;20169;-72
2023/09/05 10:27:16;;;;;;;3.00;2.20;;;;;;;;;;5056236;28;20178;-72
2023/09/05 10:29:43;;;;;;;2.50;2.00;;;;;;;;;;5073548;28;20197;-72
2023/09/05 10:32:13;;;;;;;2.43;1.70;;;;;;;;;;5039386;28;20193;-71
2023/09/05 10:34:47;;;;;;;3.53;2.13;;;;;;;;;;5056413;28;20257;-71
2023/09/05 10:37:15;;;;;;;3.30;2.00;;;;;;;;;;5055587;28;20220;-71
2023/09/05 10:39:45;;;;;;;2.30;2.10;;;;;;;;;;5055948;28;20196;-72
2023/09/05 10:42:12;;;;;;;4.60;1.90;;;;;;;;;;5055660;28;20190;-71
2023/09/05 10:44:42;;;;;;;2.93;2.00;;;;;;;;;;5055843;28;20208;-71
2023/09/05 10:47:27;;;;;;;3.03;2.13;;;;;;;;;;5052280;28;20222;-72
2023/09/05 10:50:19;;;;;;;2.93;2.07;;;;;;;;;;5053373;28;20206;-71
2023/09/05 10:52:49;;;;;;;3.93;1.83;;;;;;;;;;5047103;28;20273;-71
2023/09/05 10:55:30;;;;;;;3.87;2.10;;;;;;;;;;5036215;28;20248;-71
2023/09/05 10:57:56;;;;;;;4.13;2.00;;;;;;;;;;5053094;28;20230;-71
2023/09/05 11:00:41;;;;;;;2.53;1.97;;;;;;;;;;5053324;28;20159;-72
2023/09/05 11:03:16;;;;;;;3.17;2.37;;;;;;;;;;5020317;28;20557;-71
2023/09/05 11:05:45;;;;;;;2.67;2.33;;;;;;;;;;5018969;28;20281;-71
2023/09/05 11:08:20;;;;;;;2.90;2.10;;;;;;;;;;5051919;28;20269;-72
2023/09/05 11:11:04;;;;;;;2.67;2.33;;;;;;;;;;5038542;28;20167;-72
2023/09/05 11:13:31;;;;;;;2.33;2.07;;;;;;;;;;5035466;28;20277;-72
2023/09/05 11:15:58;;;;;;;3.27;2.00;;;;;;;;;;5053033;28;20233;-72
2023/09/05 11:22:25;;;;;;;3.47;2.20;;;;;;;;;;5056815;28;20636;-72
2023/09/05 11:24:53;;;;;;;2.73;2.10;;;;;;;;;;5057011;28;20572;-71
2023/09/05 11:27:21;;;;;;;4.50;2.27;;;;;;;;;;5038889;28;20286;-71
2023/09/05 11:29:49;;;;;;;3.07;2.10;;;;;;;;;;5038889;28;20197;-71
2023/09/05 11:32:17;;;;;;;3.03;2.00;;;;;;;;;;5055640;28;20208;-72
2023/09/05 11:35:04;;;;;;;2.60;2.27;;;;;;;;;;5039395;28;20651;-71
2023/09/05 11:37:31;;;;;;;2.97;2.10;;;;;;;;;;5056306;28;20222;-71
2023/09/05 11:40:09;;;;;;;5.97;1.87;;;;;;;;;;5057617;28;20281;-71
2023/09/05 11:42:36;;;;;;;3.17;1.83;;;;;;;;;;5055610;28;20625;-72
2023/09/05 11:45:06;;;;;;;3.87;2.20;;;;;;;;;;5055556;28;20774;-71
2023/09/05 11:47:33;;;;;;;4.27;2.20;;;;;;;;;;5038693;28;20226;-71
2023/09/05 11:50:01;;;;;;;3.30;2.00;;;;;;;;;;5055647;28;20191;-71
2023/09/05 11:52:28;;;;;;;6.30;1.90;;;;;;;;;;5055373;28;20205;-71
2023/09/05 11:54:56;;;;;;;4.43;2.10;;;;;;;;;;5039162;28;20186;-71
2023/09/05 11:57:25;;;;;;;3.50;2.07;;;;;;;;;;5022163;28;20222;-71
2023/09/05 12:03:45;;;;;;;3.50;2.20;;;;;;;;;;5056074;28;20169;-71
2023/09/05 12:06:13;;;;;;;2.47;2.00;;;;;;;;;;5038228;28;20633;-71
2023/09/05 12:08:39;;;;;;;3.17;2.20;;;;;;;;;;5056318;28;20193;-71
2023/09/05 12:11:07;;;;;;;2.10;1.90;;;;;;;;;;5056826;28;20179;-71
2023/09/05 12:13:45;;;;;;;2.20;2.00;;;;;;;;;;5038023;28;20181;-71
2023/09/05 12:16:17;;;;;;;6.17;2.50;;;;;;;;;;5038104;28;20193;-72
2023/09/05 12:18:44;;;;;;;2.50;2.20;;;;;;;;;;5038558;28;20202;-72
2023/09/05 12:21:13;;;;;;;2.40;2.07;;;;;;;;;;5037824;28;20259;-72
2023/09/05 12:23:40;;;;;;;2.03;1.83;;;;;;;;;;5038046;28;20194;-71
2023/09/05 12:26:38;;;;;;;3.20;2.00;;;;;;;;;;5055326;28;20502;-71
2023/09/05 12:29:05;;;;;;;3.50;1.93;;;;;;;;;;5036818;28;20265;-71
2023/09/05 12:31:32;;;;;;;2.97;2.20;;;;;;;;;;5037799;28;20187;-71
2023/09/05 12:34:00;;;;;;;5.00;2.13;;;;;;;;;;5055409;28;20183;-71
2023/09/05 12:36:28;;;;;;;2.30;1.73;;;;;;;;;;5054832;28;20183;-71
2023/09/05 12:38:55;;;;;;;2.03;1.83;;;;;;;;;;5038076;28;20584;-71
2023/09/05 12:41:23;;;;;;;3.30;2.20;;;;;;;;;;5055627;28;20179;-71
2023/09/05 12:43:50;;;;;;;2.23;1.90;;;;;;;;;;5055398;28;20181;-71
2023/09/05 12:46:18;;;;;;;2.33;2.13;;;;;;;;;;5053941;28;20185;-72
2023/09/05 12:48:47;;;;;;;3.47;2.00;;;;;;;;;;5033957;28;20235;-72
2023/09/05 12:51:17;;;;;;;3.07;1.93;;;;;;;;;;5035385;28;20187;-72
2023/09/05 12:53:44;;;;;;;3.10;1.70;;;;;;;;;;5002283;28;20164;-72
2023/09/05 12:56:11;;;;;;;2.83;1.87;;;;;;;;;;5035565;28;20199;-71
2023/09/05 12:58:38;;;;;;;3.93;2.10;;;;;;;;;;5017503;28;20211;-71
2023/09/05 13:01:05;;;;;;;2.90;1.97;;;;;;;;;;5034960;28;20195;-72
2023/09/05 13:03:34;;;;;;;3.07;1.80;;;;;;;;;;5034790;28;20183;-72
2023/09/05 13:06:01;;;;;;;2.53;2.17;;;;;;;;;;5034145;28;20228;-71
2023/09/05 13:08:45;;;;;;;5.33;2.00;;;;;;;;;;5006277;28;20548;-71
2023/09/05 13:11:13;;;;;;;2.40;2.03;;;;;;;;;;5017973;28;20191;-71
2023/09/05 13:13:42;;;;;;;2.30;1.70;;;;;;;;;;5017487;28;20187;-71
2023/09/05 13:16:09;;;;;;;2.27;1.70;;;;;;;;;;5034593;28;20183;-71
2023/09/05 13:18:36;;;;;;;2.20;2.00;;;;;;;;;;5000831;28;20207;-71
2023/09/05 13:21:03;;;;;;;3.23;2.20;;;;;;;;;;5033373;28;20275;-71
2023/09/05 13:23:30;;;;;;;4.53;2.13;;;;;;;;;;5034951;28;20187;-72
2023/09/05 13:25:59;;;;;;;3.37;1.90;;;;;;;;;;5016989;28;20184;-71
2023/09/05 13:28:29;;;;;;;1.90;1.80;;;;;;;;;;5001739;28;20286;-71
2023/09/05 13:30:56;;;;;;;2.47;1.90;;;;;;;;;;5034191;28;20187;-72
2023/09/05 13:33:24;;;;;;;3.73;2.03;;;;;;;;;;5000775;28;20221;-71
2023/09/05 13:35:51;;;;;;;2.00;1.80;;;;;;;;;;5035147;28;20248;-74
2023/09/05 13:38:19;;;;;;;6.10;2.10;;;;;;;;;;5017256;28;20257;-73
2023/09/05 13:40:46;;;;;;;1.80;1.70;;;;;;;;;;5034330;28;20206;-75
2023/09/05 13:43:13;;;;;;;2.50;2.00;;;;;;;;;;5033724;28;20282;-75
2023/09/05 13:45:40;;;;;;;3.63;1.90;;;;;;;;;;5034269;28;20184;-75
2023/09/05 13:48:07;;;;;;;2.40;1.80;;;;;;;;;;5047738;28;20253;-75
2023/09/05 13:50:34;;;;;;;3.27;2.00;;;;;;;;;;5036446;28;20194;-75
2023/09/05 13:53:01;;;;;;;2.63;2.10;;;;;;;;;;5050557;28;20185;-75
2023/09/05 13:55:27;;;;;;;2.90;1.70;;;;;;;;;;5069497;28;20189;-75
2023/09/05 13:58:12;;;;;;;2.00;1.70;;;;;;;;;;5053711;28;20190;-75
2023/09/05 14:00:38;;;;;;;2.80;1.73;;;;;;;;;;5054185;28;20192;-75
2023/09/05 14:03:23;;;;;;;2.30;1.70;;;;;;;;;;5054323;28;20159;-75
2023/09/05 14:05:50;;;;;;;2.57;2.17;;;;;;;;;;5069448;28;20198;-75
2023/09/05 14:08:34;;;;;;;1.83;1.63;;;;;;;;;;5054286;28;20165;-75
2023/09/05 14:11:01;;;;;;;2.17;1.80;;;;;;;;;;5052873;28;20193;-75
2023/09/05 14:13:28;;;;;;;2.30;2.00;;;;;;;;;;5069378;28;20255;-75
2023/09/05 14:15:56;;;;;;;4.97;2.10;;;;;;;;;;5053727;28;20193;-74
2023/09/05 14:18:23;;;;;;;3.10;2.20;;;;;;;;;;5053719;28;20541;-74
2023/09/05 14:21:07;;;;;;;2.20;1.57;;;;;;;;;;5036868;28;20167;-75
2023/09/05 14:23:39;;;;;;;4.40;1.80;;;;;;;;;;5053451;28;20628;-75
2023/09/05 14:26:09;;;;;;;1.87;1.67;;;;;;;;;;5052225;28;20182;-75
2023/09/05 14:28:36;;;;;;;2.13;1.70;;;;;;;;;;5036407;28;20195;-75
2023/09/05 14:31:03;;;;;;;2.37;1.90;;;;;;;;;;5037115;28;20207;-76
2023/09/05 14:33:47;;;;;;;7.30;2.03;;;;;;;;;;5024776;28;20182;-75
2023/09/05 14:36:14;;;;;;;2.50;1.63;;;;;;;;;;5054009;28;20190;-75
2023/09/05 14:38:40;;;;;;;2.00;1.80;;;;;;;;;;5053480;28;20205;-75
2023/09/05 14:41:07;;;;;;;3.87;1.80;;;;;;;;;;5053447;28;20683;-75
2023/09/05 14:43:34;;;;;;;2.10;1.67;;;;;;;;;;5036091;28;20689;-75
2023/09/05 14:46:01;;;;;;;2.20;1.80;;;;;;;;;;5053839;28;20194;-75
2023/09/05 14:48:28;;;;;;;1.80;1.60;;;;;;;;;;5016509;28;20222;-75
2023/09/05 14:50:56;;;;;;;1.70;1.60;;;;;;;;;;5032468;28;20281;-75
2023/09/05 14:53:22;;;;;;;2.27;1.80;;;;;;;;;;5035871;28;20191;-75
2023/09/05 14:55:50;;;;;;;5.20;1.80;;;;;;;;;;5036402;28;20186;-75
2023/09/05 14:58:17;;;;;;;2.80;1.60;;;;;;;;;;5037243;28;20277;-75
2023/09/05 15:00:44;;;;;;;2.33;1.63;;;;;;;;;;5048948;28;20629;-75
2023/09/05 15:03:11;;;;;;;2.63;1.80;;;;;;;;;;5036679;28;20197;-76
2023/09/05 15:05:39;;;;;;;2.77;1.50;;;;;;;;;;5036545;28;20200;-75
2023/09/05 15:08:06;;;;;;;1.93;1.53;;;;;;;;;;5036074;28;20201;-74
2023/09/05 15:10:32;;;;;;;3.00;1.50;;;;;;;;;;5019563;28;20197;-74
2023/09/05 15:12:59;;;;;;;4.40;1.40;;;;;;;;;;5035981;28;20244;-75
2023/09/05 15:15:26;;;;;;;4.83;1.67;;;;;;;;;;5035983;28;20236;-75
2023/09/05 15:17:55;;;;;;;2.33;1.90;;;;;;;;;;5037479;28;20209;-75
2023/09/05 15:20:22;;;;;;;2.40;1.70;;;;;;;;;;5037266;28;20215;-75
2023/09/05 15:22:49;;;;;;;3.73;1.73;;;;;;;;;;5036236;28;20226;-75
2023/09/05 15:25:17;;;;;;;3.07;1.67;;;;;;;;;;5035851;28;20194;-74
2023/09/05 15:27:44;;;;;;;2.50;1.60;;;;;;;;;;5037129;28;20201;-75
2023/09/05 15:30:15;;;;;;;4.37;1.70;;;;;;;;;;5020454;28;20183;-75
2023/09/05 15:32:43;;;;;;;7.33;2.10;;;;;;;;;;5034760;28;20206;-73
2023/09/05 15:35:10;;;;;;;6.97;1.93;;;;;;;;;;5035596;28;20180;-74
2023/09/05 15:37:37;;;;;;;4.50;1.87;;;;;;;;;;5052461;28;20268;-74
2023/09/05 15:40:04;;;;;;;2.80;1.70;;;;;;;;;;5037786;28;20194;-75
2023/09/05 15:42:32;;;;;;;2.20;1.80;;;;;;;;;;5052971;28;20183;-75
2023/09/05 15:44:59;;;;;;;2.30;1.80;;;;;;;;;;5037138;28;20623;-75
2023/09/05 15:47:29;;;;;;;4.60;1.70;;;;;;;;;;5052391;28;20292;-75
2023/09/05 15:49:56;;;;;;;3.67;1.90;;;;;;;;;;5035413;28;20298;-74
2023/09/05 15:52:22;;;;;;;2.30;1.70;;;;;;;;;;5035687;28;20209;-74
2023/09/05 15:54:49;;;;;;;2.33;1.83;;;;;;;;;;5036456;28;20198;-74
2023/09/05 15:57:17;;;;;;;5.40;2.10;;;;;;;;;;5036440;28;20281;-70
2023/09/05 15:59:45;;;;;;;3.90;2.03;;;;;;;;;;5035200;28;20207;-72
2023/09/05 16:06:11;;;;;;;3.40;1.77;;;;;;;;;;5036264;28;20178;-68
2023/09/05 16:08:40;;;;;;;2.43;1.70;;;;;;;;;;5036179;28;20187;-69
2023/09/05 16:11:08;;;;;;;4.57;1.80;;;;;;;;;;5034521;28;20202;-69
2023/09/05 16:17:36;;;;;;;3.20;1.83;;;;;;;;;;5037158;28;20292;-70
2023/09/05 16:24:04;;;;;;;3.33;2.43;;;;;;;;;;5032678;28;20523;-73
2023/09/05 16:26:31;;;;;;;3.87;2.60;;;;;;;;;;5034972;28;20262;-72
2023/09/05 16:29:01;;;;;;;3.63;2.20;;;;;;;;;;5018739;28;20180;-72
2023/09/05 16:35:30;;;;;;;5.40;2.27;;;;;;;;;;5036237;28;20173;-82
2023/09/05 16:41:56;;;;;;;4.23;1.97;;;;;;;;;;5036853;28;20592;-78
2023/09/05 16:44:24;;;;;;;3.00;1.77;;;;;;;;;;5034932;28;20218;-76
2023/09/05 16:55:04;;;;;;;3.73;1.80;;;;;;;;;;5056707;28;20162;-77
2023/09/05 16:57:33;;;;;;;7.00;2.17;;;;;;;;;;5046918;28;20197;-73
2023/09/05 17:00:01;;;;;;;3.63;2.20;;;;;;;;;;5035014;28;20212;-74
2023/09/05 17:06:30;;;;;;;8.03;2.57;;;;;;;;;;5054906;28;20167;-70
2023/09/05 17:08:58;;;;;;;5.30;2.40;;;;;;;;;;5054703;28;20631;-71
2023/09/05 17:11:26;;;;;;;6.30;3.47;;;;;;;;;;5069820;28;20214;-72
2023/09/05 17:13:55;;;;;;;5.27;4.10;;;;;;;;;;5053451;28;20187;-71
2023/09/05 17:16:22;;;;;;;8.93;5.23;;;;;;;;;;5053252;28;20191;-75
2023/09/05 17:19:07;;;;;;;7.70;3.77;;;;;;;;;;5054569;28;20194;-73
2023/09/05 17:21:34;;;;;;;7.87;3.93;;;;;;;;;;5055635;28;20190;-72
2023/09/05 17:24:02;;;;;;;7.63;4.17;;;;;;;;;;5054659;28;20228;-71
2023/09/05 17:26:30;;;;;;;8.23;3.10;;;;;;;;;;5061919;28;20206;-71
2023/09/05 17:28:59;;;;;;;4.47;3.13;;;;;;;;;;5054920;28;20188;-71
2023/09/05 17:31:30;;;;;;;6.07;2.93;;;;;;;;;;5069836;28;20198;-71
2023/09/05 17:34:01;;;;;;;3.33;2.90;;;;;;;;;;5033898;28;20237;-72
2023/09/05 17:36:31;;;;;;;6.20;3.00;;;;;;;;;;5044914;28;20209;-71
2023/09/05 17:38:58;;;;;;;5.27;3.07;;;;;;;;;;5055351;28;20213;-71
2023/09/05 17:41:26;;;;;;;5.30;2.53;;;;;;;;;;5053524;28;20516;-72
2023/09/05 17:43:54;;;;;;;6.43;2.80;;;;;;;;;;5053628;28;20507;-72
2023/09/05 17:46:24;;;;;;;5.23;2.90;;;;;;;;;;5057994;28;20617;-72
2023/09/05 17:48:52;;;;;;;5.53;2.73;;;;;;;;;;5073208;28;20273;-73
2023/09/05 17:51:19;;;;;;;6.80;3.17;;;;;;;;;;5057372;28;20695;-72
2023/09/05 17:53:46;;;;;;;7.87;3.30;;;;;;;;;;5074540;28;20178;-71
2023/09/05 17:56:14;;;;;;;3.40;2.53;;;;;;;;;;5056307;28;20188;-71
2023/09/05 17:58:40;;;;;;;5.67;3.00;;;;;;;;;;5039668;28;20669;-71
2023/09/05 18:01:10;;;;;;;5.83;2.93;;;;;;;;;;5073594;28;20536;-71
2023/09/05 18:03:37;;;;;;;4.07;2.93;;;;;;;;;;5045483;28;20198;-69
2023/09/05 18:06:04;;;;;;;5.83;3.10;;;;;;;;;;5036083;28;20190;-70
2023/09/05 18:08:31;;;;;;;5.00;3.00;;;;;;;;;;5036308;28;20499;-71
2023/09/05 18:11:02;;;;;;;7.43;2.67;;;;;;;;;;5036709;28;20186;-70
2023/09/05 18:13:31;;;;;;;6.47;3.00;;;;;;;;;;5036215;28;20186;-71
2023/09/05 18:16:03;;;;;;;5.63;2.63;;;;;;;;;;5037536;28;20171;-70
2023/09/05 18:22:26;;;;;;;5.37;2.87;;;;;;;;;;5053611;28;20644;-69
2023/09/05 18:24:53;;;;;;;5.20;2.80;;;;;;;;;;5053933;28;20182;-70
2023/09/05 18:31:20;;;;;;;4.73;2.93;;;;;;;;;;5073505;28;20185;-70
2023/09/05 18:37:47;;;;;;;6.37;3.17;;;;;;;;;;5073545;28;20214;-70
2023/09/05 18:44:15;;;;;;;7.90;3.10;;;;;;;;;;5073497;28;20154;-70
2023/09/05 18:50:41;;;;;;;8.93;3.00;;;;;;;;;;5051818;28;20736;-71
2023/09/05 18:57:38;;;;;;;18.60;6.17;;;;;;;;;;5071205;28;20304;-71
2023/09/05 19:04:09;;;;;;;16.63;5.80;;;;;;;;;;5073138;28;20609;-70
2023/09/05 19:06:37;;;;;;;14.30;5.93;;;;;;;;;;5074264;28;20167;-71
2023/09/05 19:09:05;;;;;;;19.60;5.77;;;;;;;;;;5072935;28;20270;-70
2023/09/05 19:11:32;;;;;;;17.50;7.03;;;;;;;;;;5038675;28;20220;-70
2023/09/05 19:13:59;;;;;;;8.80;5.37;;;;;;;;;;5055290;28;20186;-71
2023/09/05 19:20:21;;;;;;;16.17;8.37;;;;;;;;;;5073000;28;20221;-70
2023/09/05 19:26:48;;;;;;;17.90;7.57;;;;;;;;;;5072835;28;20291;-70
2023/09/05 19:29:16;;;;;;;15.47;6.50;;;;;;;;;;5071591;28;20574;-71
2023/09/05 19:31:42;;;;;;;18.73;7.67;;;;;;;;;;5072121;28;20209;-70
2023/09/05 19:34:09;;;;;;;16.70;7.97;;;;;;;;;;5054329;28;20182;-69
2023/09/05 19:36:37;;;;;;;13.03;7.63;;;;;;;;;;5055382;28;20564;-70
2023/09/05 19:39:04;;;;;;;10.30;6.93;;;;;;;;;;5073865;28;20198;-71
2023/09/05 19:41:32;;;;;;;17.87;7.10;;;;;;;;;;5074603;28;20640;-70
2023/09/05 19:47:53;;;;;;;12.50;8.17;;;;;;;;;;5076541;28;20505;-71